KHKS/HKS METAR and TAF weather

Enter ICAO airport designator
Station Type Date Time Source
KHKS METAR 2019/02/20 07:26 UTC NOAA

KHKS 200726Z AUTO 16009KT 1 1/4SM BR OVC002 14/14 A2986 RMK AO2 LTG DSNT N AND NW T01390139


Station Type Date Time Source
KHKS Decoded METAR 2019/02/20 07:26 UTC NOAA

HAWKINS FIELD, MS, United States (KHKS) 32-20N 090-13W 108M
Feb 20, 2019 - 02:26 AM EST / 2019.02.20 0726 UTC
Wind: from the SSE (160 degrees) at 10 MPH (9 KT):0
Visibility: 1 1/4 mile(s):0
Sky conditions: overcast
Weather: mist; Lightning observed
Temperature: 57.0 F (13.9 C)
Dew Point: 57.0 F (13.9 C)
Relative Humidity: 100%
Pressure (altimeter): 29.86 in. Hg (1011 hPa)
ob: KHKS 200726Z AUTO 16009KT 1 1/4SM BR OVC002 14/14 A2986 RMK AO2 LTG DSNT N AND NW T01390139
cycle: 7

Station Type Date Time Source
KHKS TAF 2019/02/20 06:42 UTC NOAA

TAF KHKS 200540Z 2006/2106 13011KT 4SM -RA BR OVC004
FM200800 15015G21KT 4SM -TSRA BR OVC007CB
FM201500 19016G22KT 3SM -SHRA BR OVC007
FM202000 26006KT 4SM -RA HZ OVC007
FM202100 32005KT P6SM OVC007


Example: see airport list